Time;durP1;ratioP1;P1;durP2;ratioP2;P2;SDS_P1;SDS_P2;PMS_P1;PMS_P2;Temp;Humidity;BMP_temperature;BMP_pressure;BME280_temperature;BME280_humidity;BME280_pressure;Samples;Min_cycle;Max_cycle;Signal;HPM_P1;HPM_P2
2022/10/02 00:02:20;;;;;;;7.13;1.40;;;12.60;99.90;;;;;;5038446;28;20175;-73
2022/10/02 00:05:03;;;;;;;8.73;2.20;;;12.60;99.90;;;;;;5046269;28;20017;-74
2022/10/02 00:07:38;;;;;;;4.70;1.55;;;12.80;99.90;;;;;;5046334;28;20500;-75
2022/10/02 00:10:33;;;;;;;6.28;1.67;;;12.80;99.90;;;;;;5038638;28;20196;-75
2022/10/02 00:13:06;;;;;;;6.20;1.30;;;12.90;99.90;;;;;;5038804;28;20051;-75
2022/10/02 00:15:34;;;;;;;8.07;1.55;;;12.90;99.90;;;;;;5030739;28;20030;-74
2022/10/02 00:18:27;;;;;;;8.00;1.92;;;12.90;99.90;;;;;;5032739;28;20068;-72
2022/10/02 00:21:15;;;;;;;11.50;2.28;;;12.90;99.90;;;;;;5047115;28;20220;-74
2022/10/02 00:23:52;;;;;;;8.73;1.45;;;12.90;99.90;;;;;;5036412;28;20660;-74
2022/10/02 00:26:28;;;;;;;6.85;1.40;;;12.90;99.90;;;;;;5036207;28;20048;-71
2022/10/02 00:29:12;;;;;;;7.90;1.95;;;12.90;99.90;;;;;;5038004;28;20115;-75
2022/10/02 00:31:54;;;;;;;6.78;1.80;;;12.80;99.90;;;;;;5040971;28;20021;-73
2022/10/02 00:34:53;;;;;;;7.68;1.38;;;12.70;99.90;;;;;;5049611;28;20029;-70
2022/10/02 00:37:41;;;;;;;7.95;1.70;;;12.50;99.90;;;;;;5033753;28;20025;-70
2022/10/02 00:40:28;;;;;;;9.38;1.40;;;12.50;99.90;;;;;;5046236;28;20053;-75
2022/10/02 00:43:06;;;;;;;6.28;1.60;;;12.40;99.90;;;;;;5041403;28;20042;-75
2022/10/02 00:45:49;;;;;;;7.82;1.90;;;12.30;99.90;;;;;;5044528;28;20384;-75
2022/10/02 00:48:18;;;;;;;7.97;2.10;;;12.30;99.90;;;;;;5039826;28;20112;-75
2022/10/02 00:51:05;;;;;;;6.88;1.35;;;12.30;99.90;;;;;;5038543;28;20033;-75
2022/10/02 00:53:58;;;;;;;11.13;2.10;;;12.30;99.90;;;;;;5033539;28;20029;-75
2022/10/02 00:56:48;;;;;;;6.15;1.65;;;12.30;99.90;;;;;;5039973;28;20597;-73
2022/10/02 00:59:30;;;;;;;;;;;12.30;99.90;;;;;;5025469;28;20401;-75
2022/10/02 01:02:09;;;;;;;7.80;1.63;;;12.30;99.90;;;;;;5035900;28;20310;-75
2022/10/02 01:04:37;;;;;;;6.20;1.90;;;12.30;99.90;;;;;;5045102;28;20037;-76
2022/10/02 01:07:07;;;;;;;8.73;1.60;;;12.40;99.90;;;;;;5044693;28;20026;-75
2022/10/02 01:09:33;;;;;;;9.55;2.05;;;12.40;99.90;;;;;;5027723;28;20044;-75
2022/10/02 01:12:00;;;;;;;6.75;1.73;;;12.50;99.90;;;;;;5045626;28;20044;-75
2022/10/02 01:14:36;;;;;;;6.40;1.45;;;12.60;99.90;;;;;;5043162;28;20414;-75
2022/10/02 01:17:04;;;;;;;10.15;2.08;;;12.70;99.90;;;;;;5043316;28;20056;-75
2022/10/02 01:19:40;;;;;;;10.20;1.75;;;12.80;99.90;;;;;;5039601;28;20463;-75
2022/10/02 01:22:34;;;;;;;11.98;2.20;;;12.80;99.90;;;;;;5048901;28;20482;-75
2022/10/02 01:25:03;;;;;;;8.07;1.38;;;12.90;99.90;;;;;;5044183;28;20068;-75
2022/10/02 01:27:29;;;;;;;8.07;1.08;;;12.90;99.90;;;;;;5048023;28;20097;-76
2022/10/02 01:30:06;;;;;;;9.77;1.50;;;12.90;99.90;;;;;;5040691;28;20029;-75
2022/10/02 01:32:34;;;;;;;7.72;2.13;;;12.90;99.90;;;;;;5043368;28;20025;-75
2022/10/02 01:35:00;;;;;;;10.20;1.98;;;13.00;99.90;;;;;;5051616;28;20025;-75
2022/10/02 01:37:32;;;;;;;8.95;1.80;;;13.00;99.90;;;;;;5038239;28;20394;-72
2022/10/02 01:40:03;;;;;;;5.65;1.73;;;13.10;99.90;;;;;;5044039;28;20073;-75
2022/10/02 01:42:29;;;;;;;10.02;1.48;;;13.10;99.90;;;;;;5043077;28;20110;-74
2022/10/02 01:44:55;;;;;;;5.28;1.17;;;13.10;99.90;;;;;;5047845;28;20489;-74
2022/10/02 01:47:41;;;;;;;7.80;1.52;;;13.10;99.90;;;;;;5044217;28;20029;-71
2022/10/02 01:50:17;;;;;;;9.25;1.45;;;13.10;99.90;;;;;;5049534;28;20115;-74
2022/10/02 01:53:02;;;;;;;5.82;1.38;;;13.10;99.90;;;;;;5048653;28;20085;-74
2022/10/02 01:55:45;;;;;;;4.88;1.17;;;13.10;99.90;;;;;;5040761;28;20065;-73
2022/10/02 01:58:32;;;;;;;7.95;1.30;;;13.10;99.90;;;;;;5042451;28;20091;-75
2022/10/02 02:01:11;;;;;;;6.30;1.60;;;13.10;99.90;;;;;;5042947;28;20033;-74
2022/10/02 02:03:46;;;;;;;9.35;1.48;;;13.10;99.90;;;;;;5035953;28;20104;-74
2022/10/02 02:06:25;;;;;;;11.30;1.60;;;13.10;99.90;;;;;;5037771;28;20037;-75
2022/10/02 02:08:59;;;;;;;5.40;1.17;;;13.20;99.90;;;;;;5041718;28;20033;-74
2022/10/02 02:11:25;;;;;;;10.45;1.73;;;13.10;99.90;;;;;;5041441;28;20099;-74
2022/10/02 02:13:54;;;;;;;5.30;1.15;;;13.20;99.90;;;;;;5040215;28;20447;-74
2022/10/02 02:16:42;;;;;;;5.82;1.77;;;13.20;99.90;;;;;;5038128;28;20470;-71
2022/10/02 02:19:19;;;;;;;7.15;1.30;;;13.20;99.90;;;;;;5043411;28;20048;-74
2022/10/02 02:22:03;;;;;;;10.68;1.55;;;13.20;99.90;;;;;;5049565;28;20064;-74
2022/10/02 02:24:39;;;;;;;7.13;1.52;;;13.20;99.90;;;;;;5035002;28;20025;-74
2022/10/02 02:27:05;;;;;;;11.10;3.35;;;13.20;99.90;;;;;;5038132;28;20017;-74
2022/10/02 02:29:34;;;;;;;10.07;1.38;;;13.20;99.90;;;;;;5046963;28;20056;-73
2022/10/02 02:32:04;;;;;;;7.60;1.70;;;13.20;99.90;;;;;;5035793;28;20076;-73
2022/10/02 02:34:42;;;;;;;;;;;13.20;99.90;;;;;;5051138;28;20558;-74
2022/10/02 02:37:18;;;;;;;5.47;1.13;;;13.20;99.90;;;;;;5042339;28;19909;-74
2022/10/02 02:40:11;;;;;;;9.48;1.60;;;13.20;99.90;;;;;;5040288;28;20037;-74
2022/10/02 02:42:42;;;;;;;5.32;1.70;;;13.30;99.90;;;;;;5047689;28;20435;-74
2022/10/02 02:45:19;;;;;;;5.07;1.40;;;13.30;99.90;;;;;;5052277;28;20025;-74
2022/10/02 02:47:50;;;;;;;5.60;1.83;;;13.30;99.90;;;;;;5043255;28;20034;-73
2022/10/02 02:50:20;;;;;;;9.30;1.70;;;13.20;99.90;;;;;;5042373;28;20478;-74
2022/10/02 02:52:54;;;;;;;9.52;2.05;;;13.20;99.90;;;;;;5032878;28;20067;-73
2022/10/02 02:55:25;;;;;;;9.35;1.80;;;13.20;99.90;;;;;;5047742;28;20037;-71
2022/10/02 02:57:54;;;;;;;10.52;1.73;;;13.20;99.90;;;;;;5038939;28;20029;-75
2022/10/02 03:00:21;;;;;;;7.28;2.30;;;13.20;99.90;;;;;;5039128;28;20509;-71
2022/10/02 03:02:49;;;;;;;7.70;1.48;;;13.20;99.90;;;;;;5048965;28;20041;-73
2022/10/02 03:05:17;;;;;;;10.70;2.00;;;13.20;99.90;;;;;;5036758;28;20033;-74
2022/10/02 03:08:13;;;;;;;6.38;1.48;;;13.20;99.90;;;;;;5043117;28;20033;-74
2022/10/02 03:11:00;;;;;;;5.80;1.75;;;13.20;99.90;;;;;;5032538;28;20120;-74
2022/10/02 03:13:28;;;;;;;7.45;1.38;;;13.20;99.90;;;;;;5035172;28;20033;-74
2022/10/02 03:16:02;;;;;;;7.82;1.95;;;13.20;99.90;;;;;;5037572;28;20032;-74
2022/10/02 03:18:28;;;;;;;9.07;1.92;;;13.20;99.90;;;;;;5022779;28;20432;-74
2022/10/02 03:21:32;;;;;;;8.88;1.52;;;13.20;99.90;;;;;;5040663;28;20109;-74
2022/10/02 03:24:41;;;;;;;8.02;1.58;;;13.10;99.90;;;;;;5034618;28;20124;-75
2022/10/02 03:27:16;;;;;;;14.82;1.95;;;13.10;99.90;;;;;;5037327;28;20478;-76
2022/10/02 03:29:54;;;;;;;8.60;2.13;;;13.10;99.90;;;;;;5040033;28;20119;-76
2022/10/02 03:32:21;;;;;;;3.85;1.15;;;13.10;99.90;;;;;;5039662;28;20033;-72
2022/10/02 03:34:48;;;;;;;9.57;1.58;;;13.00;99.90;;;;;;5045218;28;20028;-76
2022/10/02 03:37:14;;;;;;;8.75;1.30;;;13.00;99.90;;;;;;5048812;28;20102;-76
2022/10/02 03:39:44;;;;;;;5.05;1.45;;;13.00;99.90;;;;;;5022814;28;20068;-76
2022/10/02 03:42:14;;;;;;;7.43;1.35;;;12.90;99.90;;;;;;5043024;28;20028;-76
2022/10/02 03:44:40;;;;;;;5.35;1.63;;;12.80;99.90;;;;;;5040742;28;20301;-77
2022/10/02 03:47:05;;;;;;;9.18;1.52;;;12.80;99.90;;;;;;5038572;28;20531;-76
2022/10/02 03:49:31;;;;;;;8.48;1.60;;;12.80;99.90;;;;;;5038659;28;20462;-75
2022/10/02 03:51:57;;;;;;;9.63;1.45;;;12.80;99.90;;;;;;5038288;28;20049;-76
2022/10/02 03:54:22;;;;;;;8.38;1.88;;;12.80;99.90;;;;;;5043411;28;20112;-75
2022/10/02 03:56:56;;;;;;;8.82;1.80;;;12.70;99.90;;;;;;5042559;28;20120;-77
2022/10/02 03:59:49;;;;;;;13.50;2.13;;;12.70;99.90;;;;;;5043502;28;20034;-75
2022/10/02 04:02:26;;;;;;;8.05;1.80;;;12.70;99.90;;;;;;5036972;28;20459;-75
2022/10/02 04:05:24;;;;;;;10.55;1.50;;;12.70;99.90;;;;;;5048039;28;20025;-76
2022/10/02 04:07:54;;;;;;;7.72;1.52;;;12.70;99.90;;;;;;5046086;28;20024;-76
2022/10/02 04:10:28;;;;;;;6.38;1.75;;;12.70;99.90;;;;;;5039105;28;20033;-73
2022/10/02 04:13:22;;;;;;;8.85;1.77;;;12.70;99.90;;;;;;5036627;28;20022;-75
2022/10/02 04:16:14;;;;;;;10.35;1.92;;;12.80;99.90;;;;;;5044105;28;20028;-73
2022/10/02 04:18:59;;;;;;;9.90;2.03;;;12.80;99.90;;;;;;5038591;28;20048;-75
2022/10/02 04:21:33;;;;;;;9.23;1.95;;;12.80;99.90;;;;;;5037927;28;20090;-76
2022/10/02 04:24:18;;;;;;;6.05;1.83;;;12.80;99.90;;;;;;5042028;28;20107;-74
2022/10/02 04:27:06;;;;;;;9.00;1.90;;;12.80;99.90;;;;;;5038885;28;20072;-76
2022/10/02 04:29:37;;;;;;;7.57;1.52;;;12.80;99.90;;;;;;5038532;28;20132;-77
2022/10/02 04:32:23;;;;;;;8.68;1.63;;;12.80;99.90;;;;;;5036935;28;20030;-75
2022/10/02 04:34:48;;;;;;;8.88;1.52;;;12.80;99.90;;;;;;5036390;28;20033;-75
2022/10/02 04:37:33;;;;;;;9.50;1.67;;;12.90;99.90;;;;;;5046849;28;20517;-76
2022/10/02 04:40:38;;;;;;;8.88;1.60;;;12.90;99.90;;;;;;5045248;28;20427;-74
2022/10/02 04:43:09;;;;;;;7.10;1.67;;;12.90;99.90;;;;;;5043468;28;20072;-74
2022/10/02 04:46:02;;;;;;;4.88;1.33;;;12.90;99.90;;;;;;5042118;28;20043;-75
2022/10/02 04:48:54;;;;;;;7.70;1.42;;;12.80;99.90;;;;;;5042926;28;20489;-75
2022/10/02 04:51:40;;;;;;;4.88;1.48;;;12.80;99.90;;;;;;5041987;28;20036;-72
2022/10/02 04:54:25;;;;;;;10.32;1.80;;;12.80;99.90;;;;;;5047671;28;20031;-75
2022/10/02 04:57:04;;;;;;;5.88;1.90;;;12.70;99.90;;;;;;5050123;28;20060;-74
2022/10/02 05:00:03;;;;;;;10.30;1.92;;;12.70;99.90;;;;;;5039562;28;20021;-74
2022/10/02 05:02:38;;;;;;;8.77;1.67;;;12.60;99.90;;;;;;5049967;28;20458;-75
2022/10/02 05:05:35;;;;;;;6.00;1.85;;;12.60;99.90;;;;;;5043276;28;20033;-75
2022/10/02 05:08:13;;;;;;;7.18;1.52;;;12.60;99.90;;;;;;5048200;28;20036;-76
2022/10/02 05:11:12;;;;;;;6.25;1.38;;;12.60;99.90;;;;;;5045494;28;20075;-74
2022/10/02 05:13:40;;;;;;;4.97;1.20;;;12.50;99.90;;;;;;5041598;28;20525;-75
2022/10/02 05:16:24;;;;;;;6.72;1.40;;;12.50;99.90;;;;;;5045601;28;20025;-76
2022/10/02 05:18:53;;;;;;;3.47;1.30;;;12.40;99.90;;;;;;5046801;28;20029;-75
2022/10/02 05:21:52;;;;;;;3.65;1.27;;;12.40;99.90;;;;;;5051634;28;20048;-71
2022/10/02 05:24:23;;;;;;;3.03;1.55;;;12.40;99.90;;;;;;5051689;28;20079;-73
2022/10/02 05:26:57;;;;;;;5.68;1.33;;;12.30;99.90;;;;;;5051215;28;20038;-75
2022/10/02 05:29:33;;;;;;;7.85;2.05;;;12.40;99.90;;;;;;5040671;28;20029;-74
2022/10/02 05:32:28;;;;;;;3.35;1.40;;;12.30;99.90;;;;;;5041792;28;20083;-75
2022/10/02 05:35:31;;;;;;;7.25;1.67;;;12.30;99.90;;;;;;5045742;28;20030;-74
2022/10/02 05:38:35;;;;;;;5.68;1.90;;;12.30;99.90;;;;;;5012610;28;20046;-75
2022/10/02 05:41:15;;;;;;;3.78;1.40;;;12.30;99.90;;;;;;5044408;28;20061;-74
2022/10/02 05:43:58;;;;;;;5.57;1.33;;;12.30;99.90;;;;;;5049132;28;20127;-75
2022/10/02 05:46:27;;;;;;;7.30;1.70;;;12.30;99.90;;;;;;5043844;28;20386;-75
2022/10/02 05:49:13;;;;;;;9.73;2.00;;;12.30;99.90;;;;;;5043554;28;20059;-75
2022/10/02 05:51:58;;;;;;;6.88;1.77;;;12.30;99.90;;;;;;5041409;28;20414;-76
2022/10/02 05:54:32;;;;;;;7.32;1.40;;;12.30;99.90;;;;;;5035835;28;20375;-79
2022/10/02 05:57:21;;;;;;;7.07;1.60;;;12.30;99.90;;;;;;5045349;28;20029;-75
2022/10/02 05:59:58;;;;;;;7.45;1.92;;;12.30;99.90;;;;;;5042210;28;20038;-75
2022/10/02 06:02:50;;;;;;;11.13;2.05;;;12.30;99.90;;;;;;5031002;28;20029;-74
2022/10/02 06:05:40;;;;;;;6.93;1.58;;;12.20;99.90;;;;;;5036528;28;20045;-76
2022/10/02 06:08:11;;;;;;;10.82;2.53;;;12.20;99.90;;;;;;5048648;28;20096;-75
2022/10/02 06:10:52;;;;;;;8.10;2.40;;;12.10;99.90;;;;;;5047958;28;20029;-76
2022/10/02 06:13:26;;;;;;;11.85;2.80;;;12.10;99.90;;;;;;5041808;28;20358;-74
2022/10/02 06:15:58;;;;;;;5.97;1.98;;;12.10;99.90;;;;;;5048122;28;20116;-76
2022/10/02 06:18:28;;;;;;;6.20;2.05;;;12.10;99.90;;;;;;5042066;28;20041;-74
2022/10/02 06:21:22;;;;;;;8.65;2.42;;;12.10;99.90;;;;;;5042228;28;20401;-75
2022/10/02 06:23:55;;;;;;;6.93;2.08;;;12.10;99.90;;;;;;5046011;28;20028;-75
2022/10/02 06:26:31;;;;;;;12.40;2.80;;;12.10;99.90;;;;;;5037455;28;20029;-71
2022/10/02 06:29:06;;;;;;;8.93;2.47;;;12.10;99.90;;;;;;5044360;28;20385;-75
2022/10/02 06:31:46;;;;;;;7.65;2.00;;;12.10;99.90;;;;;;5047823;28;20037;-75
2022/10/02 06:34:13;;;;;;;5.20;1.98;;;12.10;99.90;;;;;;5044425;28;20028;-74
2022/10/02 06:36:52;;;;;;;7.82;2.25;;;12.10;99.90;;;;;;5035138;28;20197;-74
2022/10/02 06:39:45;;;;;;;5.90;2.28;;;12.10;99.90;;;;;;5034060;28;20394;-71
2022/10/02 06:42:16;;;;;;;5.80;2.15;;;12.20;99.90;;;;;;5038014;28;20367;-73
2022/10/02 06:45:03;;;;;;;10.18;2.67;;;12.20;99.90;;;;;;5032484;28;20606;-72
2022/10/02 06:47:47;;;;;;;10.73;2.55;;;12.20;99.90;;;;;;5034730;28;20033;-74
2022/10/02 06:51:07;;;;;;;12.60;2.78;;;12.30;99.90;;;;;;5044094;28;20099;-73
2022/10/02 06:54:10;;;;;;;9.90;2.80;;;12.30;99.90;;;;;;4950192;28;20079;-74
2022/10/02 06:56:50;;;;;;;10.05;3.08;;;12.30;99.90;;;;;;5043132;28;20037;-74
2022/10/02 06:59:47;;;;;;;11.00;2.95;;;12.20;99.90;;;;;;5045538;28;20226;-75
2022/10/02 07:02:43;;;;;;;10.20;2.92;;;12.20;99.90;;;;;;5038067;28;20049;-72
2022/10/02 07:05:43;;;;;;;11.77;3.40;;;12.20;99.90;;;;;;5033552;28;20040;-73
2022/10/02 07:08:36;;;;;;;;;;;12.20;99.90;;;;;;5041126;28;20371;-73
2022/10/02 07:11:29;;;;;;;5.85;3.17;;;12.20;99.90;;;;;;5035674;28;19909;-76
2022/10/02 07:14:09;;;;;;;11.75;4.45;;;12.20;99.90;;;;;;5033153;28;20025;-74
2022/10/02 07:16:57;;;;;;;10.25;3.75;;;12.20;99.90;;;;;;5032826;28;20108;-74
2022/10/02 07:19:44;;;;;;;9.68;3.20;;;12.10;99.90;;;;;;5033782;28;20037;-73
2022/10/02 07:22:38;;;;;;;7.57;3.88;;;12.10;99.90;;;;;;5032775;28;20116;-74
2022/10/02 07:25:32;;;;;;;4.82;3.15;;;12.20;99.90;;;;;;5022116;28;20350;-73
2022/10/02 07:28:09;;;;;;;10.88;3.97;;;12.20;99.90;;;;;;5038579;28;20025;-73
2022/10/02 07:30:59;;;;;;;10.45;4.20;;;12.20;99.90;;;;;;5037541;28;20025;-76
2022/10/02 07:34:20;;;;;;;12.13;4.00;;;12.20;99.90;;;;;;5037144;28;20107;-73
2022/10/02 07:37:13;;;;;;;11.23;4.40;;;12.30;99.90;;;;;;4940774;29;20296;-74
2022/10/02 07:40:20;;;;;;;12.85;4.78;;;12.30;99.90;;;;;;4949685;29;20069;-74
2022/10/02 07:42:57;;;;;;;8.57;4.25;;;12.30;99.90;;;;;;5035626;28;20021;-74
2022/10/02 07:45:35;;;;;;;13.15;4.65;;;12.30;99.90;;;;;;5036633;28;20029;-72
2022/10/02 07:48:13;;;;;;;10.48;4.35;;;12.30;99.90;;;;;;5037486;28;20029;-73
2022/10/02 07:50:57;;;;;;;17.35;5.28;;;12.40;99.90;;;;;;5034459;28;20025;-73
2022/10/02 07:53:39;;;;;;;13.80;4.63;;;12.40;99.90;;;;;;5043079;28;20033;-70
2022/10/02 07:56:19;;;;;;;8.63;3.95;;;12.40;99.90;;;;;;5040350;28;20501;-71
2022/10/02 07:58:57;;;;;;;12.15;4.32;;;12.40;99.90;;;;;;5039355;28;20054;-71
2022/10/02 08:01:32;;;;;;;12.35;5.47;;;12.40;99.90;;;;;;5037050;28;20057;-74
2022/10/02 08:04:02;;;;;;;13.60;4.72;;;12.50;99.90;;;;;;5014252;28;20029;-76
2022/10/02 08:06:30;;;;;;;10.52;4.60;;;12.50;99.90;;;;;;5033344;28;20437;-75
2022/10/02 08:09:03;;;;;;;12.63;5.25;;;12.50;99.90;;;;;;5035098;28;20048;-75
2022/10/02 08:11:43;;;;;;;13.07;4.47;;;12.50;99.90;;;;;;5035248;28;20041;-75
2022/10/02 08:14:18;;;;;;;12.45;3.97;;;12.50;99.90;;;;;;5030987;28;20044;-74
2022/10/02 08:16:47;;;;;;;9.82;4.10;;;12.50;99.90;;;;;;5043557;28;20036;-74
2022/10/02 08:19:18;;;;;;;9.37;4.80;;;12.50;99.90;;;;;;5033388;28;20527;-74
2022/10/02 08:22:01;;;;;;;11.77;4.07;;;12.60;99.90;;;;;;5037280;28;20291;-75
2022/10/02 08:24:35;;;;;;;8.55;3.85;;;12.60;99.90;;;;;;5030984;28;20033;-75
2022/10/02 08:27:18;;;;;;;8.43;3.42;;;12.70;99.90;;;;;;5042810;28;20381;-75
2022/10/02 08:29:56;;;;;;;10.07;3.42;;;12.70;99.90;;;;;;5040213;28;20478;-83
2022/10/02 08:32:29;;;;;;;14.05;5.00;;;12.80;99.90;;;;;;5044179;28;20039;-78
2022/10/02 08:34:55;;;;;;;18.23;4.88;;;12.90;99.90;;;;;;5033982;28;20033;-74
2022/10/02 08:38:11;;;;;;;9.93;3.65;;;13.10;99.90;;;;;;5040348;28;20033;-72
2022/10/02 08:40:45;;;;;;;9.48;3.28;;;13.30;99.90;;;;;;4974738;28;20061;-80
2022/10/02 08:43:36;;;;;;;11.18;2.97;;;13.40;99.90;;;;;;5040731;28;20080;-75
2022/10/02 08:46:23;;;;;;;;;;;13.60;99.90;;;;;;5042163;28;20040;-77
2022/10/02 08:48:53;;;;;;;9.90;3.15;;;13.70;99.90;;;;;;5040468;28;19925;-78
2022/10/02 08:51:50;;;;;;;8.35;2.67;;;14.00;99.90;;;;;;5039919;28;20040;-73
2022/10/02 08:54:51;;;;;;;8.20;2.25;;;14.20;99.90;;;;;;5037827;28;20025;-78
2022/10/02 08:57:40;;;;;;;7.40;2.20;;;14.30;99.90;;;;;;5047743;28;20048;-81
2022/10/02 09:00:21;;;;;;;13.45;3.13;;;14.20;99.90;;;;;;5038561;28;20037;-74
2022/10/02 09:03:14;;;;;;;8.60;2.60;;;14.20;99.90;;;;;;5048551;28;20084;-78
2022/10/02 09:06:22;;;;;;;10.60;2.67;;;14.30;99.90;;;;;;5026635;28;20334;-78
2022/10/02 09:09:21;;;;;;;6.28;2.90;;;14.40;99.90;;;;;;5044240;28;20112;-75
2022/10/02 09:12:05;;;;;;;8.50;2.72;;;14.50;99.90;;;;;;5043402;28;20031;-74
2022/10/02 09:14:41;;;;;;;7.10;2.70;;;14.60;99.90;;;;;;5038773;28;20029;-76
2022/10/02 09:17:29;;;;;;;8.73;2.60;;;14.70;99.90;;;;;;5048886;28;20067;-77
2022/10/02 09:20:32;;;;;;;8.60;2.67;;;14.70;99.90;;;;;;5041543;28;20437;-77
2022/10/02 09:23:19;;;;;;;9.95;2.90;;;14.70;99.90;;;;;;5038620;28;20032;-76
2022/10/02 09:26:17;;;;;;;8.60;2.50;;;14.60;99.90;;;;;;5045417;28;20032;-82
2022/10/02 09:29:35;;;;;;;6.00;2.13;;;14.60;99.90;;;;;;5046851;28;20033;-76
2022/10/02 09:32:33;;;;;;;6.93;2.30;;;14.50;99.90;;;;;;5010904;28;20095;-76
2022/10/02 09:35:08;;;;;;;8.18;2.60;;;14.70;99.90;;;;;;5045515;28;20521;-77
2022/10/02 09:38:13;;;;;;;19.35;10.10;;;14.80;99.90;;;;;;5043651;28;20071;-77
2022/10/02 09:41:09;;;;;;;15.15;7.43;;;15.10;99.90;;;;;;5041978;28;20033;-78
2022/10/02 09:43:53;;;;;;;10.20;3.50;;;15.20;99.90;;;;;;5049347;28;20067;-82
2022/10/02 09:46:43;;;;;;;7.45;2.80;;;15.20;99.90;;;;;;5045305;28;20493;-76
2022/10/02 09:49:39;;;;;;;7.25;3.10;;;15.10;99.90;;;;;;5052770;28;20429;-80
2022/10/02 09:52:04;;;;;;;10.18;3.75;;;15.10;99.90;;;;;;5047016;28;20406;-76
2022/10/02 09:54:50;;;;;;;11.40;3.33;;;15.00;99.90;;;;;;5046283;28;20025;-75
2022/10/02 09:57:30;;;;;;;10.38;2.88;;;14.70;99.90;;;;;;5045386;28;20109;-76
2022/10/02 10:00:19;;;;;;;7.93;2.90;;;14.60;99.90;;;;;;5045655;28;20040;-77
2022/10/02 10:03:15;;;;;;;6.68;2.47;;;14.60;99.90;;;;;;5045619;28;20038;-76
2022/10/02 10:06:09;;;;;;;10.63;2.63;;;14.50;99.90;;;;;;5050756;28;20017;-76
2022/10/02 10:09:10;;;;;;;10.57;3.17;;;14.40;99.90;;;;;;5056869;28;20036;-78
2022/10/02 10:11:56;;;;;;;7.82;2.45;;;14.30;99.90;;;;;;5072903;28;20411;-85
2022/10/02 10:14:37;;;;;;;7.97;3.10;;;14.10;99.90;;;;;;5064779;28;20094;-73
2022/10/02 10:17:38;;;;;;;4.82;2.53;;;14.00;99.90;;;;;;5062965;28;20021;-87
2022/10/02 10:20:35;;;;;;;5.70;2.63;;;13.90;99.90;;;;;;5061596;28;20188;-89
2022/10/02 10:23:30;;;;;;;6.30;3.05;;;13.80;99.90;;;;;;5043619;28;20079;-79
2022/10/02 10:26:01;;;;;;;7.65;3.03;;;13.70;99.90;;;;;;5043469;28;20045;-82
2022/10/02 10:28:56;;;;;;;4.93;2.55;;;13.60;99.90;;;;;;5044730;28;20037;-81
2022/10/02 10:32:00;;;;;;;5.43;2.60;;;13.40;99.90;;;;;;4998283;28;20046;-74
2022/10/02 10:34:29;;;;;;;7.32;2.63;;;13.40;99.90;;;;;;5049847;28;20033;-82
2022/10/02 10:40:42;;;;;;;7.25;3.92;;;13.30;99.90;;;;;;5013323;28;20052;-84
2022/10/02 10:43:27;;;;;;;7.57;3.72;;;13.40;99.90;;;;;;5044333;28;20045;-80
2022/10/02 10:45:59;;;;;;;4.72;3.10;;;13.50;99.90;;;;;;5049530;28;20045;-84
2022/10/02 10:48:27;;;;;;;8.82;3.88;;;13.40;99.90;;;;;;5041651;28;20037;-81
2022/10/02 10:51:13;;;;;;;6.68;3.42;;;13.40;99.90;;;;;;5042387;28;20075;-84
2022/10/02 10:53:49;;;;;;;6.40;3.88;;;13.40;99.90;;;;;;5035429;28;20021;-86
2022/10/02 10:56:58;;;;;;;6.55;3.92;;;13.40;99.90;;;;;;5038870;28;20378;-83
2022/10/02 10:59:32;;;;;;;6.38;3.53;;;13.40;99.90;;;;;;5028053;28;20083;-83
2022/10/02 11:02:22;;;;;;;6.05;3.35;;;13.40;99.90;;;;;;5042496;28;20100;-82
2022/10/02 11:04:50;;;;;;;;;;;13.30;99.90;;;;;;5039766;28;20390;-74
2022/10/02 11:07:43;;;;;;;4.80;3.40;;;13.30;99.90;;;;;;5047170;28;19916;-79
2022/10/02 11:10:36;;;;;;;4.53;3.03;;;13.30;99.90;;;;;;5039228;28;20043;-84
2022/10/02 11:13:30;;;;;;;6.07;4.05;;;13.30;99.90;;;;;;5053348;28;20099;-85
2022/10/02 11:16:29;;;;;;;5.22;3.03;;;13.40;99.90;;;;;;5037032;28;20103;-82
2022/10/02 11:19:29;;;;;;;5.00;3.50;;;13.50;99.90;;;;;;5046964;28;20100;-84
2022/10/02 11:22:18;;;;;;;6.53;2.90;;;13.60;99.90;;;;;;5046406;28;20140;-85
2022/10/02 11:25:22;;;;;;;4.82;3.30;;;13.60;99.90;;;;;;5049004;28;20053;-84
2022/10/02 11:28:02;;;;;;;6.75;3.28;;;13.70;99.90;;;;;;4995987;28;20045;-84
2022/10/02 11:30:48;;;;;;;;;;;13.70;99.90;;;;;;5042436;28;20047;-85
2022/10/02 11:33:27;;;;;;;5.82;2.38;;;13.70;99.90;;;;;;5018237;28;19909;-83
2022/10/02 11:36:26;;;;;;;3.63;2.43;;;13.80;99.90;;;;;;5040807;28;20049;-84
2022/10/02 11:39:13;;;;;;;3.38;2.30;;;13.80;99.90;;;;;;5012036;28;20055;-83
2022/10/02 11:42:04;;;;;;;2.28;1.92;;;13.80;99.90;;;;;;5039150;28;20025;-83
2022/10/02 11:44:54;;;;;;;2.03;1.80;;;13.80;99.90;;;;;;5041395;28;20041;-81
2022/10/02 11:47:28;;;;;;;2.03;1.13;;;13.80;99.90;;;;;;5044824;28;20033;-76
2022/10/02 11:50:15;;;;;;;2.40;1.58;;;13.90;99.90;;;;;;5040721;28;20620;-84
2022/10/02 11:52:59;;;;;;;1.33;1.10;;;13.80;99.90;;;;;;5046169;28;20064;-83
2022/10/02 11:55:35;;;;;;;1.42;1.30;;;13.80;99.90;;;;;;5036010;28;20116;-82
2022/10/02 11:58:11;;;;;;;0.80;0.80;;;13.80;99.90;;;;;;5040036;28;20417;-81
2022/10/02 12:00:54;;;;;;;1.65;1.10;;;13.70;99.90;;;;;;5024385;28;20021;-82
2022/10/02 12:03:35;;;;;;;2.17;1.20;;;13.70;99.90;;;;;;5038163;28;20058;-75
2022/10/02 12:06:03;;;;;;;1.80;1.17;;;13.60;99.90;;;;;;5047650;28;20021;-82
2022/10/02 12:09:00;;;;;;;0.75;0.50;;;13.70;99.90;;;;;;5037651;28;20120;-81
2022/10/02 12:11:58;;;;;;;0.70;0.70;;;13.70;99.90;;;;;;5037921;28;20379;-80
2022/10/02 12:14:29;;;;;;;0.70;0.70;;;13.90;99.90;;;;;;5009296;28;20042;-80
2022/10/02 12:17:07;;;;;;;0.73;0.70;;;13.90;99.90;;;;;;5036511;28;20108;-79
2022/10/02 12:19:35;;;;;;;0.25;0.20;;;14.00;99.90;;;;;;5039860;28;20080;-80
2022/10/02 12:28:18;;;;;;;1.33;0.60;;;13.90;99.90;;;;;;5040203;28;20056;-81
2022/10/02 12:30:48;;;;;;;0.60;0.60;;;13.80;99.90;;;;;;5046515;28;20025;-80
2022/10/02 12:33:26;;;;;;;0.35;0.35;;;13.70;99.90;;;;;;5035313;28;20029;-80
2022/10/02 12:36:12;;;;;;;1.30;0.70;;;13.60;99.90;;;;;;5050216;28;20025;-81
2022/10/02 12:39:19;;;;;;;0.70;0.40;;;13.50;99.90;;;;;;5028796;28;20041;-82
2022/10/02 12:42:13;;;;;;;1.20;0.88;;;13.30;99.90;;;;;;5015312;28;20041;-82
2022/10/02 12:44:57;;;;;;;0.85;0.57;;;13.20;99.90;;;;;;5008442;28;1090666;-80
2022/10/02 12:47:49;;;;;;;0.40;0.40;;;13.20;99.90;;;;;;5044248;28;20029;-74
2022/10/02 12:50:36;;;;;;;2.83;1.52;;;13.20;99.90;;;;;;5034238;28;20055;-84
2022/10/02 12:53:40;;;;;;;1.08;0.93;;;13.30;99.90;;;;;;5051559;28;20028;-84
2022/10/02 12:56:26;;;;;;;1.85;1.23;;;13.30;99.90;;;;;;5048295;28;20495;-84
2022/10/02 12:59:03;;;;;;;1.70;1.30;;;13.20;99.90;;;;;;5052764;28;20029;-83
2022/10/02 13:02:19;;;;;;;1.38;1.10;;;13.20;99.90;;;;;;5031141;28;20033;-85
2022/10/02 13:05:19;;;;;;;1.83;0.70;;;13.20;99.90;;;;;;4977321;28;20148;-86
2022/10/02 13:08:23;;;;;;;1.10;0.73;;;13.10;99.90;;;;;;4988634;28;20035;-85
2022/10/02 13:11:12;;;;;;;1.30;0.60;;;13.00;99.90;;;;;;5044268;28;20091;-83
2022/10/02 13:13:49;;;;;;;0.83;0.70;;;13.00;99.90;;;;;;5045840;28;20026;-84
2022/10/02 13:16:28;;;;;;;2.00;1.17;;;12.90;99.90;;;;;;5048222;28;20284;-84
2022/10/02 13:19:14;;;;;;;1.40;1.17;;;12.90;99.90;;;;;;5046178;28;20047;-85
2022/10/02 13:22:01;;;;;;;3.75;2.03;;;12.90;99.90;;;;;;5046871;28;20492;-83
2022/10/02 13:24:36;;;;;;;3.55;2.50;;;12.90;99.90;;;;;;5037447;28;20044;-85
2022/10/02 13:27:22;;;;;;;2.60;1.58;;;12.90;99.90;;;;;;5053392;28;20029;-88
2022/10/02 13:30:04;;;;;;;2.00;1.73;;;13.00;99.90;;;;;;5049032;28;20060;-89
2022/10/02 13:32:41;;;;;;;1.33;1.15;;;13.00;99.90;;;;;;5051466;28;20029;-85
2022/10/02 13:35:28;;;;;;;1.25;1.00;;;13.00;99.90;;;;;;5044030;28;20036;-87
2022/10/02 13:38:18;;;;;;;1.08;0.70;;;13.00;99.90;;;;;;5055792;28;20112;-89
2022/10/02 13:41:04;;;;;;;0.75;0.60;;;13.10;99.90;;;;;;5045906;28;20040;-86
2022/10/02 13:43:48;;;;;;;0.60;0.60;;;13.10;99.90;;;;;;5039733;28;20040;-88
2022/10/02 13:46:19;;;;;;;0.70;0.70;;;13.10;99.90;;;;;;5047430;28;20033;-89
2022/10/02 13:49:00;;;;;;;1.52;0.98;;;13.10;99.90;;;;;;5047250;28;20044;-84
2022/10/02 13:51:44;;;;;;;0.50;0.50;;;13.10;99.90;;;;;;5037909;28;20024;-85
2022/10/02 13:54:37;;;;;;;0.85;0.85;;;13.20;99.90;;;;;;5035571;28;20471;-79
2022/10/02 13:57:29;;;;;;;0.60;0.50;;;13.20;99.90;;;;;;5048627;28;20032;-88
2022/10/02 14:00:09;;;;;;;1.52;0.60;;;13.30;99.90;;;;;;5045279;28;20049;-88
2022/10/02 14:02:46;;;;;;;;;;;13.30;99.90;;;;;;5054455;28;20196;-86
2022/10/02 14:05:19;;;;;;;0.57;0.57;;;13.40;99.90;;;;;;5046719;28;19909;-86
2022/10/02 14:08:15;;;;;;;0.55;0.52;;;13.40;99.90;;;;;;5039402;28;20025;-87
2022/10/02 14:11:02;;;;;;;0.57;0.50;;;13.40;99.90;;;;;;5045514;28;20029;-86
2022/10/02 14:13:37;;;;;;;1.55;0.60;;;13.40;99.90;;;;;;5046935;28;20427;-85
2022/10/02 14:16:29;;;;;;;2.15;0.70;;;13.40;99.90;;;;;;5051957;28;20074;-86